Main page
METAR-TAF:

Airports :

Istanbul Atatürk, Turkey

Istanbul Atatürk Airport

latitude: 40-58N, longitude: 028-49E, elevation: 48 m

Current weather observation

The report was made 40 minutes ago, at 22:50 UTC
Wind 8 kt from the East/Northeast, varying between Northeast and East/Southeast
Temperature 4°C
Humidity 65%
Pressure 1028 hPa
Visibility 10 km or more
no clouds below 1500 m and no cumulonimbus

METAR: LTBA 072250Z 06008KT 040V110 CAVOK 04/M02 Q1028 NOSIG

Time: 01:30 (23:30 UTC)

Forecast

The report was made 6 hours and 50 minutes ago, at 16:40 UTC
Forecast valid from 07 at 18 UTC to 08 at 24 UTC
Wind 8 kt from the East/Northeast
Visibility 10 km or more
no clouds below 1500 m and no cumulonimbus
Probability 30%
from 08 at 02 UTC to 08 at 06 UTC
Visibility: 4000 m
mist

TAF: LTBA 071640Z 0718/0824 06008KT CAVOK PROB30 0802/0806 4000 BR

METAR-TAF

Weather observations and forecasts of more than 4000 airports (METAR and TAF reports).

The available stations are represented by yellow and red dots on the map.

Hover mouse over dot to see the name of the station.

Then click to see weather observations and forecasts.

To change the map : click on the green buttons with a black cross to zoom in, on the green button with a dash to zoom out, or on the green arrows for adjacent maps.


METAR-TAF: